Telluride, CO

7:33 PM MST on December 26, 2014 (GMT -0700)
1/2 block south of Main Street | Change Station
CLOSE
Current Station
Personal Weather Station
Location: Telluride, CO
Elevation: 8786 ft
Nearby Weather Stations

Elev 8786 ft 37.94 °N, 107.81 °W | Updated 8 seconds ago

Snow
Snow
12.9 °F
Feels Like 13 °F
N
2.3
Wind Variable Wind from WNW
Gusts 6.0 mph

Today
High -- | Low -- °F
--% Chance of Precip.
Yesterday
High -- | Low -- °F
Precip. -- in
7:25 AM 4:58 PM
Waxing Crescent, 31% visible
Pressure 29.88 in
Visibility 7.0 miles
Clouds Scattered Clouds 1400 ft
Scattered Clouds 2300 ft
Overcast 6000 ft
Windchill 13 °F
Dew Point 8 °F
Humidity 79%
Rainfall 0.00 in
Snow Depth Not available.
UV 0 out of 12
Pollen .10 out of 12
Air Quality Not available.
Flu Activity Not available.
METAR KTEX 270215Z AUTO 26009KT 7SM SCT014 SCT023 OVC060 M11/M12 A2988 RMK AO2 T11151125

More Conditions Fewer Conditions

Pressure 29.88 in
Visibility 7.0 miles
Clouds Scattered Clouds 1400 ft
Scattered Clouds 2300 ft
Overcast 6000 ft
Windchill 13 °F
Dew Point 8 °F
Humidity 79%
Rainfall 0.00 in
Snow Depth Not available.
UV 0 out of 12
Pollen .10 out of 12
Air Quality Not available.
Flu Activity Not available.
METAR KTEX 270215Z AUTO 26009KT 7SM SCT014 SCT023 OVC060 M11/M12 A2988 RMK AO2 T11151125

More Conditions Fewer Conditions

10-Day Weather Forecast

Almanac

Astronomy

Dec. 26, 2014 Rise Set
Actual Time
Civil Twilight
Nautical Twilight
Astronomical Twilight
Moon
Length of Visible Light
Length of Day
Tomorrow will be .
, % of the Moon is Illuminated

Today's Extremes

State Highs State Lows

Community

WunderPhotos

Upload Photos

1,780,815 photos uploaded!

WunderBlogs® & News

Nearby

Air Quality

  Air Quality AQ Index Pollutant
Not available.

Snow Depth

Station Depth Elevation

Earthquake Activity

City Distance Mag. Time & Date
Minimum magnitude displayed is 2.5.

Coastal Water Temperatures

Place Temperature

Nearby Weather Stations